createdAt,value
2018-06-29T00:00:41.067Z,65.40
2018-06-29T00:03:09.038Z,65.50
2018-06-29T00:05:37.043Z,65.30
2018-06-29T00:08:05.026Z,65.80
2018-06-29T00:10:33.025Z,65.70
2018-06-29T00:13:00.999Z,66.00
2018-06-29T00:15:28.997Z,66.00
2018-06-29T00:17:56.982Z,66.40
2018-06-29T00:20:25.247Z,66.80
2018-06-29T00:22:53.069Z,66.90
2018-06-29T00:25:21.076Z,67.20
2018-06-29T00:27:49.080Z,67.40
2018-06-29T00:30:17.074Z,67.40
2018-06-29T00:32:45.080Z,67.50
2018-06-29T00:35:13.057Z,67.30
2018-06-29T00:37:41.138Z,67.60
2018-06-29T00:40:09.126Z,67.50
2018-06-29T00:42:37.105Z,67.70
2018-06-29T00:45:05.139Z,67.60
2018-06-29T00:47:33.119Z,67.70
2018-06-29T00:50:01.081Z,67.70
2018-06-29T00:52:29.074Z,67.80
2018-06-29T00:54:57.122Z,68.20
2018-06-29T00:57:25.182Z,68.10
2018-06-29T00:59:53.266Z,68.20
2018-06-29T01:02:21.242Z,68.30
2018-06-29T01:04:49.293Z,68.10
2018-06-29T01:07:17.342Z,68.40
2018-06-29T01:09:45.334Z,68.20
2018-06-29T01:12:13.400Z,68.60
2018-06-29T01:14:41.474Z,68.50
2018-06-29T01:17:09.544Z,68.40
2018-06-29T01:19:37.618Z,68.50
2018-06-29T01:22:05.620Z,68.40
2018-06-29T01:24:33.616Z,68.80
2018-06-29T01:27:01.612Z,68.90
2018-06-29T01:29:29.611Z,68.70
2018-06-29T01:31:57.666Z,68.70
2018-06-29T01:34:25.644Z,67.90
2018-06-29T01:36:53.664Z,68.60
2018-06-29T01:39:21.642Z,68.70
2018-06-29T01:41:49.630Z,68.80
2018-06-29T01:44:17.607Z,69.00
2018-06-29T01:46:45.582Z,69.00
2018-06-29T01:49:13.562Z,69.30
2018-06-29T01:51:41.595Z,69.60
2018-06-29T01:54:09.591Z,70.50
2018-06-29T01:56:37.563Z,69.70
2018-06-29T01:59:05.538Z,70.10
2018-06-29T02:01:33.518Z,69.70
2018-06-29T02:04:01.494Z,69.80
2018-06-29T02:06:29.632Z,69.90
2018-06-29T02:08:57.609Z,70.00
2018-06-29T02:11:25.671Z,70.10
2018-06-29T02:13:53.855Z,70.00
2018-06-29T02:16:21.813Z,70.10
2018-06-29T02:18:49.798Z,70.40
2018-06-29T02:21:17.863Z,70.00
2018-06-29T02:23:45.848Z,69.90
2018-06-29T02:26:13.817Z,69.80
2018-06-29T02:28:41.791Z,69.80
2018-06-29T02:31:09.792Z,70.10
2018-06-29T02:33:37.798Z,70.10
2018-06-29T02:36:05.866Z,69.90
2018-06-29T02:38:33.860Z,70.80
2018-06-29T02:41:01.911Z,70.40
2018-06-29T02:43:29.894Z,70.50
2018-06-29T02:45:57.920Z,71.00
2018-06-29T02:48:26.237Z,71.30
2018-06-29T02:50:54.390Z,71.20
2018-06-29T02:53:22.380Z,71.50
2018-06-29T02:55:50.370Z,71.70
2018-06-29T02:58:18.409Z,71.90
2018-06-29T03:00:46.386Z,71.90
2018-06-29T03:03:14.439Z,71.90
2018-06-29T03:05:42.611Z,72.40
2018-06-29T03:08:10.630Z,72.10
2018-06-29T03:10:38.651Z,72.00
2018-06-29T03:13:06.660Z,72.20
2018-06-29T03:15:34.672Z,72.20
2018-06-29T03:18:02.661Z,72.40
2018-06-29T03:20:30.641Z,72.20
2018-06-29T03:22:58.614Z,72.50
2018-06-29T03:25:26.604Z,72.50
2018-06-29T03:27:54.642Z,72.20
2018-06-29T03:30:22.627Z,71.80
2018-06-29T03:32:50.596Z,71.70
2018-06-29T03:35:18.656Z,71.50
2018-06-29T03:37:46.649Z,72.30
2018-06-29T03:40:14.705Z,71.20
2018-06-29T03:42:42.637Z,71.60
2018-06-29T03:45:10.630Z,71.10
2018-06-29T03:47:38.615Z,71.40
2018-06-29T03:50:06.820Z,71.90
2018-06-29T03:52:34.825Z,72.00
2018-06-29T03:55:02.856Z,72.40
2018-06-29T03:57:30.837Z,72.60
2018-06-29T03:59:58.951Z,72.50
2018-06-29T04:02:26.933Z,72.80
2018-06-29T04:04:54.938Z,72.60
2018-06-29T04:07:22.924Z,72.80
2018-06-29T04:09:50.989Z,72.40
2018-06-29T04:12:18.957Z,73.00
2018-06-29T04:14:46.972Z,72.30
2018-06-29T04:17:15.036Z,72.00
2018-06-29T04:19:43.116Z,72.00
2018-06-29T04:22:11.094Z,71.70
2018-06-29T04:24:39.102Z,71.50
2018-06-29T04:27:07.079Z,71.50
2018-06-29T04:29:35.091Z,71.10
2018-06-29T04:32:03.096Z,70.60
2018-06-29T04:34:31.120Z,70.20
2018-06-29T04:36:59.090Z,70.70
2018-06-29T04:39:27.066Z,70.90
2018-06-29T04:41:55.054Z,70.90
2018-06-29T04:44:23.096Z,70.60
2018-06-29T04:46:51.078Z,71.10
2018-06-29T04:49:19.205Z,70.30
2018-06-29T04:51:47.166Z,70.60
2018-06-29T04:54:15.143Z,70.80
2018-06-29T04:56:43.308Z,70.80
2018-06-29T04:59:11.387Z,70.80
2018-06-29T05:01:39.389Z,70.80
2018-06-29T05:04:07.398Z,70.90
2018-06-29T05:06:35.434Z,71.30
2018-06-29T05:09:03.607Z,71.50
2018-06-29T05:11:31.681Z,71.80
2018-06-29T05:13:59.671Z,71.70
2018-06-29T05:16:27.667Z,71.80
2018-06-29T05:18:55.630Z,71.90
2018-06-29T05:21:23.610Z,72.50
2018-06-29T05:23:51.724Z,72.60
2018-06-29T05:26:19.698Z,71.90
2018-06-29T05:28:47.719Z,71.50
2018-06-29T05:31:15.720Z,71.70
2018-06-29T05:33:43.815Z,71.80
2018-06-29T05:36:11.819Z,71.50
2018-06-29T05:38:39.823Z,71.90
2018-06-29T05:41:07.901Z,70.80
2018-06-29T05:43:35.987Z,70.90
2018-06-29T05:46:04.006Z,71.30
2018-06-29T05:48:32.080Z,71.30
2018-06-29T05:51:00.083Z,70.90
2018-06-29T05:53:28.053Z,70.30
2018-06-29T05:55:56.055Z,69.90
2018-06-29T05:58:24.026Z,69.30
2018-06-29T06:00:51.996Z,69.90
2018-06-29T06:03:19.981Z,69.50
2018-06-29T06:05:48.015Z,69.50
2018-06-29T06:08:15.996Z,69.40
2018-06-29T06:10:44.041Z,69.10
2018-06-29T06:13:12.115Z,68.60
2018-06-29T06:15:40.141Z,68.90
2018-06-29T06:18:08.140Z,68.10
2018-06-29T06:20:36.111Z,68.10
2018-06-29T06:23:20.681Z,67.70
2018-06-29T06:25:48.845Z,67.70
2018-06-29T06:28:17.643Z,67.30
2018-06-29T06:30:45.711Z,67.70
2018-06-29T06:33:13.906Z,67.40
2018-06-29T06:35:42.158Z,66.50
2018-06-29T06:38:10.194Z,66.40
2018-06-29T06:40:38.259Z,65.60
2018-06-29T06:43:06.260Z,66.50
2018-06-29T06:45:34.338Z,66.00
2018-06-29T06:48:02.419Z,66.20
2018-06-29T06:50:30.477Z,65.30
2018-06-29T06:52:58.613Z,65.90
2018-06-29T06:55:26.602Z,64.90
2018-06-29T06:57:54.587Z,65.00
2018-06-29T07:00:22.658Z,64.30
2018-06-29T07:02:50.747Z,64.30
2018-06-29T07:05:18.716Z,64.40
2018-06-29T07:07:46.691Z,63.80
2018-06-29T07:10:14.711Z,64.20
2018-06-29T07:12:42.770Z,64.30
2018-06-29T07:15:10.710Z,63.70
2018-06-29T07:17:38.756Z,63.30
2018-06-29T07:20:08.166Z,63.20
2018-06-29T07:22:36.167Z,62.80
2018-06-29T07:25:04.398Z,62.60
2018-06-29T07:27:32.862Z,62.00
2018-06-29T07:30:00.978Z,62.00
2018-06-29T07:32:28.992Z,62.50
2018-06-29T07:34:56.966Z,62.30
2018-06-29T07:37:25.059Z,61.70
2018-06-29T07:39:53.102Z,61.30
2018-06-29T07:42:21.197Z,61.60
2018-06-29T07:44:49.227Z,61.20
2018-06-29T07:47:17.255Z,60.30
2018-06-29T07:49:45.288Z,60.00
2018-06-29T07:52:13.337Z,59.70
2018-06-29T07:54:41.418Z,59.60
2018-06-29T07:57:09.403Z,59.70
2018-06-29T07:59:37.498Z,59.60
2018-06-29T08:02:05.534Z,59.40
2018-06-29T08:04:33.513Z,58.70
2018-06-29T08:07:01.594Z,59.00
2018-06-29T08:09:29.666Z,58.40
2018-06-29T08:11:57.694Z,58.70
2018-06-29T08:14:25.674Z,58.50
2018-06-29T08:16:53.741Z,58.40
2018-06-29T08:19:21.747Z,58.00
2018-06-29T08:21:49.818Z,58.40
2018-06-29T08:24:17.940Z,57.30
2018-06-29T08:26:45.968Z,57.20
2018-06-29T08:29:14.034Z,57.10
2018-06-29T08:31:42.103Z,57.40
2018-06-29T08:34:10.172Z,57.50
2018-06-29T08:36:38.166Z,56.50
2018-06-29T08:39:07.952Z,56.80
2018-06-29T08:41:35.933Z,56.70
2018-06-29T08:44:04.501Z,56.40
2018-06-29T08:46:32.589Z,57.00
2018-06-29T08:49:00.621Z,55.60
2018-06-29T08:51:28.730Z,56.10
2018-06-29T08:53:56.742Z,55.70
2018-06-29T08:56:24.725Z,56.10
2018-06-29T08:58:52.814Z,56.50
2018-06-29T09:01:20.778Z,54.60
2018-06-29T09:03:48.827Z,54.60
2018-06-29T09:06:16.835Z,55.20
2018-06-29T09:08:44.855Z,53.70
2018-06-29T09:11:12.863Z,52.90
2018-06-29T09:13:40.855Z,52.10
2018-06-29T09:16:08.872Z,52.00
2018-06-29T09:18:36.867Z,53.50
2018-06-29T09:21:04.856Z,53.10
2018-06-29T09:23:32.830Z,52.10
2018-06-29T09:26:00.850Z,52.20
2018-06-29T09:28:28.853Z,51.50
2018-06-29T09:30:56.858Z,50.60
2018-06-29T09:33:24.883Z,50.80
2018-06-29T09:35:52.878Z,51.60
2018-06-29T09:38:20.890Z,51.80
2018-06-29T09:40:48.872Z,51.30
2018-06-29T09:43:16.976Z,50.70
2018-06-29T09:45:45.011Z,51.10
2018-06-29T09:48:13.257Z,51.00
2018-06-29T09:50:41.122Z,48.60
2018-06-29T09:53:09.171Z,47.60
2018-06-29T09:55:37.165Z,48.20
2018-06-29T09:58:05.507Z,45.50
2018-06-29T10:00:33.490Z,46.10
2018-06-29T10:03:01.654Z,46.40
2018-06-29T10:05:30.025Z,47.40
2018-06-29T10:07:58.111Z,47.30
2018-06-29T10:10:26.180Z,47.30
2018-06-29T10:12:54.248Z,47.00
2018-06-29T10:15:22.311Z,46.50
2018-06-29T10:17:50.577Z,46.30
2018-06-29T10:20:18.615Z,46.90
2018-06-29T10:22:46.553Z,48.00
2018-06-29T10:25:14.789Z,48.10
2018-06-29T10:27:42.874Z,46.70
2018-06-29T10:30:11.002Z,46.10
2018-06-29T10:32:39.309Z,45.80
2018-06-29T10:35:07.608Z,47.40
2018-06-29T10:37:35.658Z,47.90
2018-06-29T10:40:03.730Z,47.70
2018-06-29T10:42:31.762Z,47.30
2018-06-29T10:44:59.810Z,46.70
2018-06-29T10:47:27.850Z,47.30
2018-06-29T10:49:55.872Z,47.00
2018-06-29T10:52:23.992Z,46.70
2018-06-29T10:54:51.992Z,46.10
2018-06-29T10:57:20.032Z,45.40
2018-06-29T10:59:48.017Z,45.40
2018-06-29T11:02:16.075Z,43.60
2018-06-29T11:04:44.079Z,43.70
2018-06-29T11:07:12.064Z,43.50
2018-06-29T11:09:40.057Z,42.60
2018-06-29T11:12:08.035Z,44.30
2018-06-29T11:14:36.048Z,43.20
2018-06-29T11:17:04.028Z,42.60
2018-06-29T11:19:32.018Z,42.40
2018-06-29T11:21:59.999Z,42.40
2018-06-29T11:24:28.004Z,41.80
2018-06-29T11:26:55.974Z,42.40
2018-06-29T11:29:23.986Z,42.70
2018-06-29T11:31:52.103Z,42.20
2018-06-29T11:34:20.115Z,43.20
2018-06-29T11:36:48.195Z,44.10
2018-06-29T11:39:16.135Z,44.30
2018-06-29T11:41:44.281Z,43.90
2018-06-29T11:44:13.141Z,44.40
2018-06-29T11:46:41.100Z,44.70
2018-06-29T11:49:09.406Z,44.20
2018-06-29T11:51:37.406Z,44.60
2018-06-29T11:54:05.862Z,43.70
2018-06-29T11:56:33.930Z,44.10
2018-06-29T11:59:01.922Z,44.70
2018-06-29T12:01:29.935Z,43.80
2018-06-29T12:03:58.260Z,42.60
2018-06-29T12:06:26.301Z,41.50
2018-06-29T12:08:54.399Z,41.70
2018-06-29T12:11:22.378Z,42.90
2018-06-29T12:13:50.375Z,43.10
2018-06-29T12:16:18.362Z,42.10
2018-06-29T12:18:46.335Z,41.80
2018-06-29T12:21:14.403Z,40.10
2018-06-29T12:23:42.423Z,39.70
2018-06-29T12:26:10.422Z,38.30
2018-06-29T12:28:38.448Z,37.60
2018-06-29T12:31:06.436Z,38.50
2018-06-29T12:33:34.430Z,38.10
2018-06-29T12:36:02.427Z,37.40
2018-06-29T12:38:30.478Z,37.40
2018-06-29T12:40:58.471Z,39.00
2018-06-29T12:43:26.528Z,38.70
2018-06-29T12:45:54.520Z,38.20
2018-06-29T12:48:22.498Z,37.90
2018-06-29T12:50:50.572Z,38.60
2018-06-29T12:53:18.609Z,38.20
2018-06-29T12:55:46.629Z,38.00
2018-06-29T12:58:14.734Z,37.20
2018-06-29T13:00:42.757Z,37.80
2018-06-29T13:03:10.767Z,37.90
2018-06-29T13:05:38.847Z,38.00
2018-06-29T13:08:06.874Z,36.50
2018-06-29T13:10:34.877Z,37.60
2018-06-29T13:13:02.869Z,38.00
2018-06-29T13:15:30.871Z,36.40
2018-06-29T13:17:58.863Z,38.20
2018-06-29T13:22:54.788Z,37.40
2018-06-29T13:25:22.776Z,34.70
2018-06-29T13:27:50.798Z,34.20
2018-06-29T13:30:18.899Z,35.30
2018-06-29T13:32:46.900Z,36.00
2018-06-29T13:35:14.878Z,36.80
2018-06-29T13:37:42.881Z,36.20
2018-06-29T13:40:10.866Z,35.20
2018-06-29T13:42:38.862Z,35.30
2018-06-29T13:45:06.885Z,34.10
2018-06-29T13:47:34.867Z,32.80
2018-06-29T13:50:02.934Z,33.70
2018-06-29T13:52:30.929Z,33.50
2018-06-29T13:54:58.994Z,33.30
2018-06-29T13:57:26.947Z,33.30
2018-06-29T13:59:54.911Z,33.60
2018-06-29T14:02:22.908Z,32.60
2018-06-29T14:04:50.889Z,32.90
2018-06-29T14:07:18.932Z,32.50
2018-06-29T14:09:46.916Z,33.30
2018-06-29T14:12:14.912Z,33.20
2018-06-29T14:14:42.959Z,32.60
2018-06-29T14:19:38.785Z,33.80
2018-06-29T14:22:06.868Z,34.60
2018-06-29T14:27:02.687Z,35.30
2018-06-29T14:29:30.692Z,34.70
2018-06-29T14:31:58.696Z,33.60
2018-06-29T14:34:26.687Z,35.10
2018-06-29T14:36:54.714Z,35.20
2018-06-29T14:39:22.731Z,36.30
2018-06-29T14:41:50.708Z,36.60
2018-06-29T14:44:18.685Z,36.30
2018-06-29T14:46:46.747Z,36.20
2018-06-29T14:49:14.738Z,36.90
2018-06-29T14:51:42.777Z,38.00
2018-06-29T14:54:10.763Z,37.10
2018-06-29T14:56:38.806Z,36.60
2018-06-29T14:59:06.790Z,37.00
2018-06-29T15:01:34.766Z,37.30
2018-06-29T15:04:02.751Z,37.90
2018-06-29T15:06:30.747Z,37.20
2018-06-29T15:08:58.750Z,37.30
2018-06-29T15:11:26.814Z,37.20
2018-06-29T15:13:54.807Z,37.70
2018-06-29T15:16:22.859Z,37.60
2018-06-29T15:18:50.842Z,37.30
2018-06-29T15:21:18.816Z,37.90
2018-06-29T15:23:46.871Z,37.50
2018-06-29T15:26:14.850Z,38.10
2018-06-29T15:28:42.922Z,37.10
2018-06-29T15:31:10.903Z,36.50
2018-06-29T15:38:34.616Z,37.80
2018-06-29T15:41:02.768Z,36.70
2018-06-29T15:43:30.777Z,36.00
2018-06-29T15:45:58.798Z,36.10
2018-06-29T15:48:26.854Z,37.60
2018-06-29T15:50:54.840Z,38.40
2018-06-29T15:53:22.825Z,39.00
2018-06-29T15:55:50.827Z,41.70
2018-06-29T15:58:18.828Z,45.20
2018-06-29T16:00:46.811Z,47.20
2018-06-29T16:03:14.811Z,48.10
2018-06-29T16:05:42.880Z,48.50
2018-06-29T16:08:10.932Z,49.00
2018-06-29T16:10:38.925Z,49.30
2018-06-29T16:13:06.937Z,48.90
2018-06-29T16:15:34.962Z,49.40
2018-06-29T16:18:02.927Z,49.50
2018-06-29T16:20:30.926Z,49.80
2018-06-29T16:22:58.914Z,50.40
2018-06-29T16:25:26.927Z,51.00
2018-06-29T16:27:54.951Z,51.20
2018-06-29T16:30:23.049Z,51.50
2018-06-29T16:32:51.029Z,51.30
2018-06-29T16:35:19.078Z,51.60
2018-06-29T16:37:47.043Z,52.10
2018-06-29T16:40:15.027Z,51.70
2018-06-29T16:42:43.056Z,51.60
2018-06-29T16:45:11.042Z,52.00
2018-06-29T16:47:39.022Z,51.80
2018-06-29T16:50:07.193Z,51.10
2018-06-29T16:52:35.594Z,51.00
2018-06-29T16:55:03.594Z,50.90
2018-06-29T16:57:31.603Z,50.90
2018-06-29T16:59:59.583Z,48.30
2018-06-29T17:02:27.624Z,47.50
2018-06-29T17:04:55.619Z,47.20
2018-06-29T17:07:23.693Z,47.60
2018-06-29T17:09:51.661Z,48.10
2018-06-29T17:12:19.691Z,48.00
2018-06-29T17:14:47.667Z,48.30
2018-06-29T17:17:15.694Z,48.70
2018-06-29T17:19:50.223Z,49.10
2018-06-29T17:22:18.244Z,49.50
2018-06-29T17:24:46.223Z,49.50
2018-06-29T17:27:14.219Z,49.50
2018-06-29T17:29:42.194Z,49.30
2018-06-29T17:32:10.238Z,50.10
2018-06-29T17:34:38.218Z,49.50
2018-06-29T17:37:06.215Z,49.80
2018-06-29T17:39:34.215Z,50.40
2018-06-29T17:42:02.201Z,49.80
2018-06-29T17:44:30.241Z,49.60
2018-06-29T17:46:58.660Z,50.10
2018-06-29T17:49:26.741Z,50.60
2018-06-29T17:51:54.738Z,51.00
2018-06-29T17:56:50.747Z,51.60
2018-06-29T17:59:18.769Z,52.10
2018-06-29T18:01:46.764Z,52.50
2018-06-29T18:04:14.825Z,52.90
2018-06-29T18:06:42.827Z,53.30
2018-06-29T18:09:11.714Z,53.80
2018-06-29T18:11:39.699Z,53.50
2018-06-29T18:14:07.866Z,53.50
2018-06-29T18:16:35.874Z,54.00
2018-06-29T18:19:04.241Z,54.40
2018-06-29T18:21:32.205Z,54.50
2018-06-29T18:24:00.251Z,54.70
2018-06-29T18:26:28.242Z,55.30
2018-06-29T18:31:24.287Z,55.70
2018-06-29T18:33:52.211Z,56.10
2018-06-29T18:36:20.294Z,56.40
2018-06-29T18:38:48.287Z,56.80
2018-06-29T18:41:16.307Z,56.80
2018-06-29T18:43:44.310Z,57.20
2018-06-29T18:46:12.386Z,56.80
2018-06-29T18:48:40.374Z,56.80
2018-06-29T18:51:08.467Z,57.10
2018-06-29T18:53:36.499Z,57.00
2018-06-29T18:56:04.521Z,57.30
2018-06-29T18:58:32.533Z,57.10
2018-06-29T19:01:00.596Z,57.30
2018-06-29T19:03:28.692Z,57.00
2018-06-29T19:08:24.595Z,57.10
2018-06-29T19:10:52.595Z,57.30
2018-06-29T19:13:20.598Z,57.20
2018-06-29T19:15:48.604Z,57.30
2018-06-29T19:18:16.590Z,57.30
2018-06-29T19:20:44.563Z,57.40
2018-06-29T19:23:12.607Z,57.40
2018-06-29T19:25:40.696Z,57.50
2018-06-29T19:28:08.683Z,57.40
2018-06-29T19:30:36.683Z,57.70
2018-06-29T19:33:04.919Z,57.60
2018-06-29T19:35:32.899Z,57.20
2018-06-29T19:38:00.889Z,57.20
2018-06-29T19:40:28.885Z,57.10
2018-06-29T19:42:56.862Z,57.10
2018-06-29T19:45:24.954Z,57.10
2018-06-29T19:47:52.932Z,56.80
2018-06-29T19:50:20.915Z,57.00
2018-06-29T19:52:48.935Z,56.90
2018-06-29T19:55:16.878Z,56.80
2018-06-29T19:57:44.931Z,57.00
2018-06-29T20:00:12.942Z,57.00
2018-06-29T20:02:40.938Z,56.70
2018-06-29T20:05:08.958Z,56.10
2018-06-29T20:07:36.969Z,56.10
2018-06-29T20:10:05.244Z,56.10
2018-06-29T20:12:33.228Z,55.80
2018-06-29T20:15:01.223Z,55.50
2018-06-29T20:17:29.247Z,55.20
2018-06-29T20:19:57.240Z,55.30
2018-06-29T20:22:25.243Z,55.10
2018-06-29T20:24:53.707Z,55.10
2018-06-29T20:27:21.748Z,55.40
2018-06-29T20:29:49.721Z,55.10
2018-06-29T20:32:17.690Z,55.20
2018-06-29T20:34:45.754Z,54.70
2018-06-29T20:37:13.738Z,55.40
2018-06-29T20:39:41.715Z,55.50
2018-06-29T20:42:09.682Z,56.00
2018-06-29T20:44:37.720Z,56.00
2018-06-29T20:47:05.719Z,56.40
2018-06-29T20:52:01.672Z,56.90
2018-06-29T20:54:29.800Z,57.10
2018-06-29T20:56:57.787Z,57.30
2018-06-29T20:59:26.576Z,57.30
2018-06-29T21:01:54.553Z,57.70
2018-06-29T21:04:22.526Z,58.00
2018-06-29T21:06:50.505Z,58.20
2018-06-29T21:09:18.492Z,58.30
2018-06-29T21:11:46.512Z,58.40
2018-06-29T21:14:14.490Z,58.70
2018-06-29T21:16:42.564Z,59.00
2018-06-29T21:19:10.581Z,59.20
2018-06-29T21:21:38.584Z,58.90
2018-06-29T21:24:06.659Z,59.20
2018-06-29T21:26:34.644Z,59.00
2018-06-29T21:29:02.654Z,59.60
2018-06-29T21:31:31.071Z,59.40
2018-06-29T21:33:59.054Z,59.50
2018-06-29T21:36:27.058Z,59.70
2018-06-29T21:38:55.130Z,59.80
2018-06-29T21:41:23.119Z,59.80
2018-06-29T21:43:51.130Z,59.80
2018-06-29T21:46:19.123Z,59.80
2018-06-29T21:48:47.089Z,60.10
2018-06-29T21:51:15.222Z,60.30
2018-06-29T21:53:43.243Z,60.50
2018-06-29T21:56:11.260Z,60.50
2018-06-29T21:58:39.255Z,60.70
2018-06-29T22:01:07.306Z,60.50
2018-06-29T22:03:35.297Z,60.50
2018-06-29T22:06:03.341Z,60.20
2018-06-29T22:08:31.336Z,60.60
2018-06-29T22:13:27.133Z,60.30
2018-06-29T22:15:55.136Z,60.50
2018-06-29T22:18:23.116Z,60.70
2018-06-29T22:20:51.102Z,60.70
2018-06-29T22:23:19.178Z,60.60
2018-06-29T22:25:47.150Z,60.50
2018-06-29T22:28:15.117Z,60.60
2018-06-29T22:30:43.089Z,60.80
2018-06-29T22:33:11.075Z,60.90
2018-06-29T22:35:39.042Z,61.00
2018-06-29T22:38:07.023Z,61.10
2018-06-29T22:40:35.001Z,61.10
2018-06-29T22:43:02.993Z,61.40
2018-06-29T22:45:31.040Z,61.50
2018-06-29T22:47:59.036Z,61.20
2018-06-29T22:50:27.086Z,60.70
2018-06-29T22:52:55.075Z,60.60
2018-06-29T22:55:23.070Z,61.00
2018-06-29T22:57:51.062Z,61.10
2018-06-29T23:00:19.055Z,60.90
2018-06-29T23:02:47.051Z,60.70
2018-06-29T23:05:15.027Z,60.40
2018-06-29T23:10:10.831Z,60.30
2018-06-29T23:12:38.904Z,60.00
2018-06-29T23:15:06.977Z,60.50
2018-06-29T23:17:35.038Z,60.10
2018-06-29T23:20:03.010Z,60.50
2018-06-29T23:22:30.974Z,60.40
2018-06-29T23:24:58.962Z,60.30
2018-06-29T23:27:26.924Z,60.60
2018-06-29T23:29:54.983Z,60.20
2018-06-29T23:32:22.959Z,59.80
2018-06-29T23:34:51.029Z,59.60
2018-06-29T23:37:19.020Z,59.70
2018-06-29T23:39:47.076Z,59.60
2018-06-29T23:42:15.052Z,59.50
2018-06-29T23:44:43.163Z,59.40
2018-06-29T23:47:11.144Z,59.60
2018-06-29T23:49:39.144Z,59.30
2018-06-29T23:52:07.210Z,59.30
2018-06-29T23:54:35.286Z,59.10
2018-06-29T23:57:03.255Z,59.10
2018-06-29T23:59:31.233Z,58.90
